MDT,Max TemperatureF,Mean TemperatureF,Min TemperatureF,Max Dew PointF,MeanDew PointF,Min DewpointF,Max Humidity, Mean Humidity, Min Humidity, Max Sea Level PressureIn, Mean Sea Level PressureIn, Min Sea Level PressureIn, Max VisibilityMiles, Mean VisibilityMiles, Min VisibilityMiles, Max Wind SpeedMPH, Mean Wind SpeedMPH, Max Gust SpeedMPH,PrecipitationIn, CloudCover, Events, WindDirDegrees
2013-3-1,48,36,23,33,24,13,70,58,45,30.33,30.27,30.22,10,10,9,10,5,13,T,5,,233
2013-3-2,55,45,35,28,25,23,60,45,30,30.22,30.08,29.82,10,10,10,14,4,16,0.00,0,,187
2013-3-3,53,39,25,30,24,13,88,65,41,29.81,29.67,29.49,10,7,1,51,13,66,T,5,Snow,316
2013-3-4,30,22,13,14,11,8,80,63,46,30.41,30.11,29.79,10,9,5,37,26,60,T,4,Snow,337
2013-3-5,35,21,7,13,9,1,84,60,35,30.41,30.27,30.09,10,10,7,15,5,21,0.00,1,,135
2013-3-6,52,36,19,26,19,9,69,51,32,30.06,29.85,29.68,10,10,10,20,5,29,0.00,0,,161
2013-3-7,46,38,30,25,21,16,72,53,33,30.07,29.94,29.70,10,10,10,23,7,29,0.00,0,,308
2013-3-8,46,38,29,28,25,22,75,60,45,30.03,29.91,29.80,10,10,10,22,11,26,0.00,2,,142
2013-3-9,37,31,25,27,22,19,85,69,52,30.22,30.02,29.82,10,10,10,36,23,49,0.00,5,,342
2013-3-10,47,34,20,22,19,15,81,57,33,30.26,30.14,29.96,10,10,10,20,5,24,0.00,0,,300
2013-3-11,41,30,19,30,24,14,92,66,40,30.28,30.06,29.95,10,4,0,37,17,45,0.03,7,Fog-Snow,337
2013-3-12,41,27,12,21,16,9,84,62,40,30.39,30.27,30.11,10,10,10,18,9,24,0.00,3,,165
2013-3-13,63,49,34,29,25,20,57,41,25,30.14,30.09,30.01,10,10,10,15,6,23,0.00,1,,239
2013-3-14,65,51,37,31,27,24,54,39,24,30.18,30.08,29.95,10,10,10,13,5,13,0.00,0,,241
2013-3-15,60,49,37,29,26,22,64,45,25,30.00,29.89,29.79,10,10,10,26,11,36,0.00,1,,327
2013-3-16,49,40,31,35,29,24,92,67,42,30.00,29.92,29.72,10,7,0,21,9,26,0.04,6,Fog-Snow,159
2013-3-17,48,35,21,30,23,11,88,66,43,29.86,29.58,29.37,10,8,1,43,20,54,T,5,Snow,339
2013-3-18,39,27,14,19,14,5,92,64,35,30.01,29.92,29.80,10,10,5,29,8,35,T,5,Snow,340
2013-3-19,31,26,20,22,19,13,88,76,63,30.38,30.20,29.98,10,7,0,31,9,38,T,6,Fog-Snow,339
2013-3-20,52,35,17,19,16,11,80,53,26,30.31,29.93,29.64,10,10,10,15,8,20,0.00,2,,196
2013-3-21,42,33,24,28,24,13,85,63,41,29.90,29.67,29.47,10,6,0,36,14,47,T,6,Fog-Snow,327
2013-3-22,32,23,13,20,15,11,92,69,46,30.15,29.95,29.86,10,6,0,24,16,35,0.01,7,Fog-Snow,342
2013-3-23,22,17,11,12,10,6,88,73,57,30.31,30.19,30.02,10,8,1,23,12,32,T,5,Snow,335
2013-3-24,21,16,10,11,8,4,84,73,62,30.40,30.23,30.11,10,7,0,36,14,45,T,6,Snow,349
2013-3-25,39,23,6,14,7,0,83,56,29,30.38,30.26,30.09,10,10,10,20,6,25,0.00,0,,198
2013-3-26,48,36,23,12,7,3,50,34,17,30.06,30.01,29.96,10,10,10,10,6,14,0.00,0,,249
2013-3-27,56,42,28,24,18,8,52,39,26,30.06,30.00,29.94,10,10,10,16,7,21,0.00,1,,220
2013-3-28,59,46,33,24,21,19,52,38,23,30.06,30.03,29.98,10,10,10,12,6,16,0.00,1,,268
2013-3-29,59,49,39,36,27,20,85,59,32,30.11,30.03,29.96,10,10,10,25,10,40,T,3,,319
2013-3-30,53,43,33,32,26,20,70,50,30,30.14,30.11,30.05,10,10,10,36,12,44,T,4,Rain,324
2013-3-31,57,43,28,25,22,19,63,45,27,30.14,30.04,29.96,10,10,10,36,14,45,0.00,3,,327